sensor_id;sensor_type;location;lat;lon;timestamp;pressure;altitude;pressure_sealevel;temperature;humidity
24868;BME280;12941;48.698;9.310;2023-11-19T00:00:17;97848.1;;;11.91;84.378
24868;BME280;12941;48.698;9.310;2023-11-19T00:01:22;97855.8;;;11.91;84.463
24868;BME280;12941;48.698;9.310;2023-11-19T00:02:26;97859.1;;;11.93;84.413
24868;BME280;12941;48.698;9.310;2023-11-19T00:03:27;97857.2;;;11.95;84.481
24868;BME280;12941;48.698;9.310;2023-11-19T00:04:31;97856.1;;;11.99;84.329
24868;BME280;12941;48.698;9.310;2023-11-19T00:05:32;97864.59999999999;;;12.01;84.183
24868;BME280;12941;48.698;9.310;2023-11-19T00:06:35;97864.59999999999;;;12.01;84.269
24868;BME280;12941;48.698;9.310;2023-11-19T00:07:37;97861.1;;;12.02;84.569
24868;BME280;12941;48.698;9.310;2023-11-19T00:08:41;97862.8;;;12.01;84.602
24868;BME280;12941;48.698;9.310;2023-11-19T00:09:41;97862.90000000001;;;12;84.855
24868;BME280;12941;48.698;9.310;2023-11-19T00:10:42;97855.3;;;11.98;85.015
24868;BME280;12941;48.698;9.310;2023-11-19T00:11:42;97860.6;;;11.95;85.351
24868;BME280;12941;48.698;9.310;2023-11-19T00:12:47;97864.09999999999;;;11.94;85.565
24868;BME280;12941;48.698;9.310;2023-11-19T00:13:47;97862.5;;;11.93;85.894
24868;BME280;12941;48.698;9.310;2023-11-19T00:14:47;97861.8;;;11.9;86.328
24868;BME280;12941;48.698;9.310;2023-11-19T00:15:52;97860.2;;;11.89;86.839
24868;BME280;12941;48.698;9.310;2023-11-19T00:16:52;97857.1;;;11.84;87.302
24868;BME280;12941;48.698;9.310;2023-11-19T00:17:57;97851.9;;;11.84;87.526
24868;BME280;12941;48.698;9.310;2023-11-19T00:19:02;97854.7;;;11.81;88.067
24868;BME280;12941;48.698;9.310;2023-11-19T00:20:07;97845.5;;;11.76;88.562
24868;BME280;12941;48.698;9.310;2023-11-19T00:21:07;97850;;;11.73;89.06
24868;BME280;12941;48.698;9.310;2023-11-19T00:22:12;97843.5;;;11.67;89.915
24868;BME280;12941;48.698;9.310;2023-11-19T00:23:12;97839.5;;;11.62;90.589
24868;BME280;12941;48.698;9.310;2023-11-19T00:24:17;97840.59999999999;;;11.58;91.384
24868;BME280;12941;48.698;9.310;2023-11-19T00:25:17;97839.20000000001;;;11.52;92.1
24868;BME280;12941;48.698;9.310;2023-11-19T00:26:22;97835.2;;;11.48;92.829
24868;BME280;12941;48.698;9.310;2023-11-19T00:27:22;97832.8;;;11.45;93.26
24868;BME280;12941;48.698;9.310;2023-11-19T00:28:22;97833.7;;;11.44;93.781
24868;BME280;12941;48.698;9.310;2023-11-19T00:29:27;97830.4;;;11.42;94.302
24868;BME280;12941;48.698;9.310;2023-11-19T00:30:32;97828.8;;;11.41;94.662
24868;BME280;12941;48.698;9.310;2023-11-19T00:31:32;97833.90000000001;;;11.41;95.165
24868;BME280;12941;48.698;9.310;2023-11-19T00:32:37;97832.5;;;11.37;95.541
24868;BME280;12941;48.698;9.310;2023-11-19T00:33:37;97830.6;;;11.39;95.834
24868;BME280;12941;48.698;9.310;2023-11-19T00:34:43;97831.5;;;11.38;96.043
24868;BME280;12941;48.698;9.310;2023-11-19T00:35:47;97823.8;;;11.38;96.471
24868;BME280;12941;48.698;9.310;2023-11-19T00:36:52;97836.3;;;11.3;96.892
24868;BME280;12941;48.698;9.310;2023-11-19T00:37:52;97840.4;;;11.32;97.335
24868;BME280;12941;48.698;9.310;2023-11-19T00:38:57;97834.6;;;11.29;97.84
24868;BME280;12941;48.698;9.310;2023-11-19T00:39:57;97837.3;;;11.27;98.209
24868;BME280;12941;48.698;9.310;2023-11-19T00:40:57;97845.1;;;11.26;98.687
24868;BME280;12941;48.698;9.310;2023-11-19T00:41:57;97840.8;;;11.26;98.847
24868;BME280;12941;48.698;9.310;2023-11-19T00:42:57;97833.90000000001;;;11.27;99.232
24868;BME280;12941;48.698;9.310;2023-11-19T00:44:02;97835.6;;;11.26;99.486
24868;BME280;12941;48.698;9.310;2023-11-19T00:45:02;97839.9;;;11.26;99.774
24868;BME280;12941;48.698;9.310;2023-11-19T00:46:07;97828.8;;;11.25;100
24868;BME280;12941;48.698;9.310;2023-11-19T00:47:07;97841.8;;;11.24;100
24868;BME280;12941;48.698;9.310;2023-11-19T00:48:12;97827.9;;;11.26;100
24868;BME280;12941;48.698;9.310;2023-11-19T00:49:17;97824.7;;;11.23;100
24868;BME280;12941;48.698;9.310;2023-11-19T00:50:22;97824.1;;;11.19;100
24868;BME280;12941;48.698;9.310;2023-11-19T00:51:27;97827.5;;;11.2;100
24868;BME280;12941;48.698;9.310;2023-11-19T00:52:27;97821.6;;;11.18;100
24868;BME280;12941;48.698;9.310;2023-11-19T00:53:32;97815.7;;;11.16;100
24868;BME280;12941;48.698;9.310;2023-11-19T00:54:37;97813.09999999999;;;11.17;100
24868;BME280;12941;48.698;9.310;2023-11-19T00:55:42;97812.3;;;11.15;100
24868;BME280;12941;48.698;9.310;2023-11-19T00:56:42;97810.7;;;11.14;100
24868;BME280;12941;48.698;9.310;2023-11-19T00:57:47;97814.9;;;11.15;100
24868;BME280;12941;48.698;9.310;2023-11-19T00:58:52;97805.5;;;11.16;100
24868;BME280;12941;48.698;9.310;2023-11-19T00:59:57;97807.4;;;11.12;100
24868;BME280;12941;48.698;9.310;2023-11-19T01:01:02;97806.5;;;11.11;100
24868;BME280;12941;48.698;9.310;2023-11-19T01:02:07;97804.1;;;11.1;100
24868;BME280;12941;48.698;9.310;2023-11-19T01:03:07;97809;;;11.13;100
24868;BME280;12941;48.698;9.310;2023-11-19T01:04:07;97804.7;;;11.14;100
24868;BME280;12941;48.698;9.310;2023-11-19T01:05:12;97801.2;;;11.15;100
24868;BME280;12941;48.698;9.310;2023-11-19T01:06:26;97805.4;;;11.17;100
24868;BME280;12941;48.698;9.310;2023-11-19T01:07:22;97807;;;11.18;100
24868;BME280;12941;48.698;9.310;2023-11-19T01:08:22;97809.7;;;11.17;100
24868;BME280;12941;48.698;9.310;2023-11-19T01:09:22;97799.2;;;11.2;100
24868;BME280;12941;48.698;9.310;2023-11-19T01:10:22;97804.4;;;11.2;100
24868;BME280;12941;48.698;9.310;2023-11-19T01:11:27;97801.8;;;11.2;100
24868;BME280;12941;48.698;9.310;2023-11-19T01:12:27;97798.2;;;11.22;100
24868;BME280;12941;48.698;9.310;2023-11-19T01:13:32;97785.5;;;11.21;100
24868;BME280;12941;48.698;9.310;2023-11-19T01:14:37;97789.59999999999;;;11.23;100
24868;BME280;12941;48.698;9.310;2023-11-19T01:15:37;97778.5;;;11.23;100
24868;BME280;12941;48.698;9.310;2023-11-19T01:16:42;97784.40000000001;;;11.25;100
24868;BME280;12941;48.698;9.310;2023-11-19T01:17:42;97786;;;11.27;100
24868;BME280;12941;48.698;9.310;2023-11-19T01:18:42;97782.4;;;11.3;100
24868;BME280;12941;48.698;9.310;2023-11-19T01:19:42;97788.3;;;11.32;100
24868;BME280;12941;48.698;9.310;2023-11-19T01:20:42;97791.6;;;11.34;100
24868;BME280;12941;48.698;9.310;2023-11-19T01:21:47;97788.09999999999;;;11.35;100
24868;BME280;12941;48.698;9.310;2023-11-19T01:22:52;97779.5;;;11.36;100
24868;BME280;12941;48.698;9.310;2023-11-19T01:23:57;97786.40000000001;;;11.34;100
24868;BME280;12941;48.698;9.310;2023-11-19T01:24:57;97780.3;;;11.36;100
24868;BME280;12941;48.698;9.310;2023-11-19T01:25:57;97781;;;11.38;100
24868;BME280;12941;48.698;9.310;2023-11-19T01:27:02;97786;;;11.4;100
24868;BME280;12941;48.698;9.310;2023-11-19T01:28:07;97785.1;;;11.41;100
24868;BME280;12941;48.698;9.310;2023-11-19T01:29:10;97779.1;;;11.42;100
24868;BME280;12941;48.698;9.310;2023-11-19T01:30:12;97782.4;;;11.44;100
24868;BME280;12941;48.698;9.310;2023-11-19T01:31:17;97779.7;;;11.45;100
24868;BME280;12941;48.698;9.310;2023-11-19T01:32:22;97781.3;;;11.48;100
24868;BME280;12941;48.698;9.310;2023-11-19T01:33:22;97773.6;;;11.48;100
24868;BME280;12941;48.698;9.310;2023-11-19T01:34:22;97773.6;;;11.48;100
24868;BME280;12941;48.698;9.310;2023-11-19T01:35:27;97771.8;;;11.49;100
24868;BME280;12941;48.698;9.310;2023-11-19T01:36:32;97764.09999999999;;;11.49;100
24868;BME280;12941;48.698;9.310;2023-11-19T01:37:32;97762.3;;;11.51;100
24868;BME280;12941;48.698;9.310;2023-11-19T01:38:37;97766.4;;;11.53;100
24868;BME280;12941;48.698;9.310;2023-11-19T01:39:43;97763;;;11.54;100
24868;BME280;12941;48.698;9.310;2023-11-19T01:40:42;97759.5;;;11.55;100
24868;BME280;12941;48.698;9.310;2023-11-19T01:41:42;97761.1;;;11.56;100
24868;BME280;12941;48.698;9.310;2023-11-19T01:42:47;97765.20000000001;;;11.6;100
24868;BME280;12941;48.698;9.310;2023-11-19T01:43:52;97762.40000000001;;;11.63;100
24868;BME280;12941;48.698;9.310;2023-11-19T01:44:54;97768.4;;;11.64;100
24868;BME280;12941;48.698;9.310;2023-11-19T01:45:57;97757.2;;;11.65;100
24868;BME280;12941;48.698;9.310;2023-11-19T01:46:57;97757.1;;;11.66;100
24868;BME280;12941;48.698;9.310;2023-11-19T01:48:02;97755.2;;;11.68;100
24868;BME280;12941;48.698;9.310;2023-11-19T01:49:07;97755.2;;;11.68;100
24868;BME280;12941;48.698;9.310;2023-11-19T01:50:12;97760.40000000001;;;11.68;100
24868;BME280;12941;48.698;9.310;2023-11-19T01:51:17;97756.9;;;11.69;100
24868;BME280;12941;48.698;9.310;2023-11-19T01:52:18;97762.7;;;11.71;100
24868;BME280;12941;48.698;9.310;2023-11-19T01:53:22;97758.3;;;11.73;100
24868;BME280;12941;48.698;9.310;2023-11-19T01:54:22;97763.3;;;11.76;100
24868;BME280;12941;48.698;9.310;2023-11-19T01:55:27;97768.4;;;11.78;100
24868;BME280;12941;48.698;9.310;2023-11-19T01:56:27;97769.1;;;11.8;100
24868;BME280;12941;48.698;9.310;2023-11-19T01:57:32;97767.3;;;11.82;100
24868;BME280;12941;48.698;9.310;2023-11-19T01:58:37;97764.59999999999;;;11.84;100
24868;BME280;12941;48.698;9.310;2023-11-19T01:59:42;97758.5;;;11.86;100
24868;BME280;12941;48.698;9.310;2023-11-19T02:00:43;97759.1;;;11.9;100
24868;BME280;12941;48.698;9.310;2023-11-19T02:01:42;97761.6;;;11.91;100
24868;BME280;12941;48.698;9.310;2023-11-19T02:02:47;97766.5;;;11.94;100
24868;BME280;12941;48.698;9.310;2023-11-19T02:03:52;97763;;;11.95;100
24868;BME280;12941;48.698;9.310;2023-11-19T02:04:52;97760.2;;;12;100
24868;BME280;12941;48.698;9.310;2023-11-19T02:05:57;97753.2;;;12.02;100
24868;BME280;12941;48.698;9.310;2023-11-19T02:06:57;97754;;;12.02;100
24868;BME280;12941;48.698;9.310;2023-11-19T02:08:02;97752.20000000001;;;12.04;100
24868;BME280;12941;48.698;9.310;2023-11-19T02:09:02;97747.7;;;12.08;100
24868;BME280;12941;48.698;9.310;2023-11-19T02:10:08;97746;;;12.07;100
24868;BME280;12941;48.698;9.310;2023-11-19T02:11:07;97746.6;;;12.1;100
24868;BME280;12941;48.698;9.310;2023-11-19T02:12:12;97745.6;;;12.13;100
24868;BME280;12941;48.698;9.310;2023-11-19T02:13:12;97743;;;12.15;100
24868;BME280;12941;48.698;9.310;2023-11-19T02:14:17;97739.3;;;12.19;100
24868;BME280;12941;48.698;9.310;2023-11-19T02:15:17;97745.1;;;12.21;100
24868;BME280;12941;48.698;9.310;2023-11-19T02:16:22;97735.6;;;12.23;100
24868;BME280;12941;48.698;9.310;2023-11-19T02:17:28;97739.70000000001;;;12.25;100
24868;BME280;12941;48.698;9.310;2023-11-19T02:18:27;97736;;;12.29;100
24868;BME280;12941;48.698;9.310;2023-11-19T02:19:32;97739.09999999999;;;12.34;100
24868;BME280;12941;48.698;9.310;2023-11-19T02:20:37;97744.9;;;12.38;99.804
24868;BME280;12941;48.698;9.310;2023-11-19T02:21:42;97740.4;;;12.41;99.406
24868;BME280;12941;48.698;9.310;2023-11-19T02:22:47;97744.4;;;12.45;99.008
24868;BME280;12941;48.698;9.310;2023-11-19T02:23:47;97733.90000000001;;;12.49;98.555
24868;BME280;12941;48.698;9.310;2023-11-19T02:24:57;97729.3;;;12.54;98.106
24868;BME280;12941;48.698;9.310;2023-11-19T02:25:56;97731.6;;;12.58;97.85
24868;BME280;12941;48.698;9.310;2023-11-19T02:26:55;97733.1;;;12.61;97.469
24868;BME280;12941;48.698;9.310;2023-11-19T02:27:58;97726.9;;;12.65;97.051
24868;BME280;12941;48.698;9.310;2023-11-19T02:29:02;97727.5;;;12.68;97.239
24868;BME280;12941;48.698;9.310;2023-11-19T02:30:03;97729;;;12.71;96.967
24868;BME280;12941;48.698;9.310;2023-11-19T02:31:03;97726.2;;;12.74;96.459
24868;BME280;12941;48.698;9.310;2023-11-19T02:32:07;97727;;;12.76;96.217
24868;BME280;12941;48.698;9.310;2023-11-19T02:33:07;97723.29999999999;;;12.8;95.691
24868;BME280;12941;48.698;9.310;2023-11-19T02:34:07;97723.29999999999;;;12.8;96.259
24868;BME280;12941;48.698;9.310;2023-11-19T02:35:12;97721.40000000001;;;12.82;95.984
24868;BME280;12941;48.698;9.310;2023-11-19T02:36:12;97718.6;;;12.85;95.969
24868;BME280;12941;48.698;9.310;2023-11-19T02:37:12;97724.5;;;12.87;95.651
24868;BME280;12941;48.698;9.310;2023-11-19T02:38:12;97714.20000000001;;;12.87;95.362
24868;BME280;12941;48.698;9.310;2023-11-19T02:39:17;97717.5;;;12.89;95.592
24868;BME280;12941;48.698;9.310;2023-11-19T02:40:17;97716.5;;;12.92;95.479
24868;BME280;12941;48.698;9.310;2023-11-19T02:41:17;97725;;;12.92;95.589
24868;BME280;12941;48.698;9.310;2023-11-19T02:42:17;97727.5;;;12.94;95.291
24868;BME280;12941;48.698;9.310;2023-11-19T02:43:23;97728.2;;;12.96;95.112
24868;BME280;12941;48.698;9.310;2023-11-19T02:44:22;97720.3;;;12.99;95.11
24868;BME280;12941;48.698;9.310;2023-11-19T02:45:23;97720.2;;;13;95.273
24868;BME280;12941;48.698;9.310;2023-11-19T02:46:22;97719.1;;;13.03;95.172
24868;BME280;12941;48.698;9.310;2023-11-19T02:47:27;97719.9;;;13.05;94.672
24868;BME280;12941;48.698;9.310;2023-11-19T02:48:32;97724.8;;;13.08;94.335
24868;BME280;12941;48.698;9.310;2023-11-19T02:49:37;97717.8;;;13.1;93.963
24868;BME280;12941;48.698;9.310;2023-11-19T02:50:37;97717.6;;;13.13;94.014
24868;BME280;12941;48.698;9.310;2023-11-19T02:51:37;97723.5;;;13.15;93.557
24868;BME280;12941;48.698;9.310;2023-11-19T02:52:43;97719.8;;;13.19;93.136
24868;BME280;12941;48.698;9.310;2023-11-19T02:53:47;97713.59999999999;;;13.22;92.948
24868;BME280;12941;48.698;9.310;2023-11-19T02:54:52;97719.3;;;13.27;92.949
24868;BME280;12941;48.698;9.310;2023-11-19T02:55:52;97720.9;;;13.28;92.82
24868;BME280;12941;48.698;9.310;2023-11-19T02:56:57;97716.5;;;13.3;92.364
24868;BME280;12941;48.698;9.310;2023-11-19T02:58:02;97725.8;;;13.32;92.347
24868;BME280;12941;48.698;9.310;2023-11-19T02:59:02;97728.2;;;13.34;92.619
24868;BME280;12941;48.698;9.310;2023-11-19T03:00:03;97721.2;;;13.36;92.967
24868;BME280;12941;48.698;9.310;2023-11-19T03:01:03;97728.8;;;13.37;93.175
24868;BME280;12941;48.698;9.310;2023-11-19T03:02:07;97725.40000000001;;;13.37;93.506
24868;BME280;12941;48.698;9.310;2023-11-19T03:03:12;97724.5;;;13.38;93.776
24868;BME280;12941;48.698;9.310;2023-11-19T03:04:17;97718.4;;;13.39;93.316
24868;BME280;12941;48.698;9.310;2023-11-19T03:05:17;97720.1;;;13.4;93.662
24868;BME280;12941;48.698;9.310;2023-11-19T03:06:23;97724.3;;;13.41;93.483
24868;BME280;12941;48.698;9.310;2023-11-19T03:07:23;97725;;;13.43;93.187
24868;BME280;12941;48.698;9.310;2023-11-19T03:08:27;97719.9;;;13.43;93.154
24868;BME280;12941;48.698;9.310;2023-11-19T03:09:32;97714.70000000001;;;13.43;93.315
24868;BME280;12941;48.698;9.310;2023-11-19T03:10:32;97720.7;;;13.43;92.993
24868;BME280;12941;48.698;9.310;2023-11-19T03:11:33;97722.29999999999;;;13.44;92.512
24868;BME280;12941;48.698;9.310;2023-11-19T03:12:38;97730;;;13.46;92.173
24868;BME280;12941;48.698;9.310;2023-11-19T03:13:38;97724.59999999999;;;13.49;92.028
24868;BME280;12941;48.698;9.310;2023-11-19T03:14:43;97725.3;;;13.51;91.989
24868;BME280;12941;48.698;9.310;2023-11-19T03:15:48;97719.3;;;13.52;91.854
24868;BME280;12941;48.698;9.310;2023-11-19T03:16:52;97722.5;;;13.54;92.266
24868;BME280;12941;48.698;9.310;2023-11-19T03:17:52;97726.70000000001;;;13.57;92.237
24868;BME280;12941;48.698;9.310;2023-11-19T03:18:57;97729.1;;;13.58;91.649
24868;BME280;12941;48.698;9.310;2023-11-19T03:19:57;97726.5;;;13.6;91.426
24868;BME280;12941;48.698;9.310;2023-11-19T03:21:03;97740;;;13.62;91.884
24868;BME280;12941;48.698;9.310;2023-11-19T03:22:03;97738.2;;;13.64;91.726
24868;BME280;12941;48.698;9.310;2023-11-19T03:23:07;97739.8;;;13.65;91.18
24868;BME280;12941;48.698;9.310;2023-11-19T03:24:08;97739.59999999999;;;13.68;91.218
24868;BME280;12941;48.698;9.310;2023-11-19T03:25:13;97735.29999999999;;;13.68;91.069
24868;BME280;12941;48.698;9.310;2023-11-19T03:26:18;97735.2;;;13.7;90.641
24868;BME280;12941;48.698;9.310;2023-11-19T03:27:18;97725.59999999999;;;13.72;90.408
24868;BME280;12941;48.698;9.310;2023-11-19T03:28:22;97737.59999999999;;;13.71;90.591
24868;BME280;12941;48.698;9.310;2023-11-19T03:29:22;97736.7;;;13.72;90.904
24868;BME280;12941;48.698;9.310;2023-11-19T03:30:23;97736.7;;;13.72;91.303
24868;BME280;12941;48.698;9.310;2023-11-19T03:31:23;97740.9;;;13.73;91.337
24868;BME280;12941;48.698;9.310;2023-11-19T03:32:27;97734.79999999999;;;13.74;90.984
24868;BME280;12941;48.698;9.310;2023-11-19T03:33:28;97731.3;;;13.75;90.717
24868;BME280;12941;48.698;9.310;2023-11-19T03:34:33;97723.5;;;13.77;90.947
24868;BME280;12941;48.698;9.310;2023-11-19T03:35:37;97734.6;;;13.77;91.089
24868;BME280;12941;48.698;9.310;2023-11-19T03:36:37;97737.2;;;13.77;91.347
24868;BME280;12941;48.698;9.310;2023-11-19T03:37:38;97737.90000000001;;;13.79;91.179
24868;BME280;12941;48.698;9.310;2023-11-19T03:38:43;97741.4;;;13.78;91.218
24868;BME280;12941;48.698;9.310;2023-11-19T03:39:48;97741.2;;;13.82;91.269
24868;BME280;12941;48.698;9.310;2023-11-19T03:40:53;97738.59999999999;;;13.82;91.344
24868;BME280;12941;48.698;9.310;2023-11-19T03:41:53;97730.1;;;13.81;91.32
24868;BME280;12941;48.698;9.310;2023-11-19T03:42:58;97740.4;;;13.81;90.686
24868;BME280;12941;48.698;9.310;2023-11-19T03:44:03;97731.5;;;13.85;90.833
24868;BME280;12941;48.698;9.310;2023-11-19T03:45:03;97732.3;;;13.86;90.781
24868;BME280;12941;48.698;9.310;2023-11-19T03:46:03;97734.1;;;13.85;90.747
24868;BME280;12941;48.698;9.310;2023-11-19T03:47:03;97729.8;;;13.86;90.599
24868;BME280;12941;48.698;9.310;2023-11-19T03:48:08;97723;;;13.85;91.317
24868;BME280;12941;48.698;9.310;2023-11-19T03:49:13;97725.7;;;13.83;91.861
24868;BME280;12941;48.698;9.310;2023-11-19T03:50:18;97723.90000000001;;;13.84;91.788
24868;BME280;12941;48.698;9.310;2023-11-19T03:51:23;97714.5;;;13.83;91.668
24868;BME280;12941;48.698;9.310;2023-11-19T03:52:23;97719.1;;;13.79;92.327
24868;BME280;12941;48.698;9.310;2023-11-19T03:53:28;97715.7;;;13.78;92.572
24868;BME280;12941;48.698;9.310;2023-11-19T03:54:33;97715.7;;;13.78;92.508
24868;BME280;12941;48.698;9.310;2023-11-19T03:55:33;97717.5;;;13.76;92.354
24868;BME280;12941;48.698;9.310;2023-11-19T03:56:33;97721;;;13.75;92.513
24868;BME280;12941;48.698;9.310;2023-11-19T03:57:38;97719.4;;;13.74;92.79
24868;BME280;12941;48.698;9.310;2023-11-19T03:58:38;97721;;;13.75;92.889
24868;BME280;12941;48.698;9.310;2023-11-19T03:59:43;97726.2;;;13.75;92.717
24868;BME280;12941;48.698;9.310;2023-11-19T04:00:43;97719.4;;;13.74;92.833
24868;BME280;12941;48.698;9.310;2023-11-19T04:01:43;97724.5;;;13.74;92.887
24868;BME280;12941;48.698;9.310;2023-11-19T04:02:43;97721;;;13.75;92.706
24868;BME280;12941;48.698;9.310;2023-11-19T04:03:48;97727.8;;;13.76;92.998
24868;BME280;12941;48.698;9.310;2023-11-19T04:04:48;97721.90000000001;;;13.76;93.448
24868;BME280;12941;48.698;9.310;2023-11-19T04:05:53;97721;;;13.75;93.792
24868;BME280;12941;48.698;9.310;2023-11-19T04:06:53;97724.5;;;13.74;94.059
24868;BME280;12941;48.698;9.310;2023-11-19T04:07:58;97716.09999999999;;;13.72;94.259
24868;BME280;12941;48.698;9.310;2023-11-19T04:08:58;97712.8;;;13.7;94.373
24868;BME280;12941;48.698;9.310;2023-11-19T04:09:58;97714.70000000001;;;13.68;94.411
24868;BME280;12941;48.698;9.310;2023-11-19T04:11:03;97706.2;;;13.66;94.545
24868;BME280;12941;48.698;9.310;2023-11-19T04:12:08;97709.7;;;13.65;94.747
24868;BME280;12941;48.698;9.310;2023-11-19T04:13:08;97705.6;;;13.63;94.894
24868;BME280;12941;48.698;9.310;2023-11-19T04:14:08;97705.7;;;13.61;95.072
24868;BME280;12941;48.698;9.310;2023-11-19T04:15:08;97713.59999999999;;;13.6;95.144
24868;BME280;12941;48.698;9.310;2023-11-19T04:16:13;97713.8;;;13.57;95.781
24868;BME280;12941;48.698;9.310;2023-11-19T04:17:13;97707.1;;;13.54;96.367
24868;BME280;12941;48.698;9.310;2023-11-19T04:18:13;97707.2;;;13.53;96.535
24868;BME280;12941;48.698;9.310;2023-11-19T04:19:13;97710;;;13.5;97.065
24868;BME280;12941;48.698;9.310;2023-11-19T04:20:13;97710.79999999999;;;13.5;97.602
24868;BME280;12941;48.698;9.310;2023-11-19T04:21:18;97716;;;13.5;97.666
24868;BME280;12941;48.698;9.310;2023-11-19T04:22:18;97719.3;;;13.52;97.555
24868;BME280;12941;48.698;9.310;2023-11-19T04:23:23;97714;;;13.54;97.481
24868;BME280;12941;48.698;9.310;2023-11-19T04:24:23;97722.29999999999;;;13.57;97.254
24868;BME280;12941;48.698;9.310;2023-11-19T04:25:28;97719.6;;;13.59;97.172
24868;BME280;12941;48.698;9.310;2023-11-19T04:26:33;97721.40000000001;;;13.58;97.159
24868;BME280;12941;48.698;9.310;2023-11-19T04:27:33;97728.9;;;13.61;96.758
24868;BME280;12941;48.698;9.310;2023-11-19T04:28:38;97732.2;;;13.63;96.654
24868;BME280;12941;48.698;9.310;2023-11-19T04:29:43;97727.8;;;13.65;96.68
24868;BME280;12941;48.698;9.310;2023-11-19T04:30:48;97729.4;;;13.66;96.296
24868;BME280;12941;48.698;9.310;2023-11-19T04:31:48;97722.40000000001;;;13.68;95.979
24868;BME280;12941;48.698;9.310;2023-11-19T04:32:48;97730.8;;;13.7;95.769
24868;BME280;12941;48.698;9.310;2023-11-19T04:33:48;97731.5;;;13.72;95.858
24868;BME280;12941;48.698;9.310;2023-11-19T04:34:53;97728.9;;;13.74;95.947
24868;BME280;12941;48.698;9.310;2023-11-19T04:35:58;97721;;;13.75;95.736
24868;BME280;12941;48.698;9.310;2023-11-19T04:37:03;97712.40000000001;;;13.76;95.771
24868;BME280;12941;48.698;9.310;2023-11-19T04:38:03;97711.5;;;13.76;95.876
24868;BME280;12941;48.698;9.310;2023-11-19T04:39:08;97720.1;;;13.76;95.985
24868;BME280;12941;48.698;9.310;2023-11-19T04:40:08;97707.2;;;13.76;95.953
24868;BME280;12941;48.698;9.310;2023-11-19T04:41:08;97716.09999999999;;;13.72;96.191
24868;BME280;12941;48.698;9.310;2023-11-19T04:42:08;97723.1;;;13.7;96.478
24868;BME280;12941;48.698;9.310;2023-11-19T04:43:08;97726.59999999999;;;13.69;96.787
24868;BME280;12941;48.698;9.310;2023-11-19T04:44:13;97716.5;;;13.66;96.939
24868;BME280;12941;48.698;9.310;2023-11-19T04:45:18;97720.3;;;13.62;97.629
24868;BME280;12941;48.698;9.310;2023-11-19T04:46:23;97718.8;;;13.58;98.36
24868;BME280;12941;48.698;9.310;2023-11-19T04:47:28;97726;;;13.53;98.938
24868;BME280;12941;48.698;9.310;2023-11-19T04:48:28;97734.90000000001;;;13.49;99.616
24868;BME280;12941;48.698;9.310;2023-11-19T04:49:28;97721.3;;;13.47;100
24868;BME280;12941;48.698;9.310;2023-11-19T04:50:28;97726.70000000001;;;13.44;100
24868;BME280;12941;48.698;9.310;2023-11-19T04:51:28;97725.40000000001;;;13.37;100
24868;BME280;12941;48.698;9.310;2023-11-19T04:52:33;97727.09999999999;;;13.38;100
24868;BME280;12941;48.698;9.310;2023-11-19T04:53:33;97734.1;;;13.36;100
24868;BME280;12941;48.698;9.310;2023-11-19T04:54:33;97728.3;;;13.32;100
24868;BME280;12941;48.698;9.310;2023-11-19T04:55:33;97725.09999999999;;;13.3;100
24868;BME280;12941;48.698;9.310;2023-11-19T04:56:35;97723.40000000001;;;13.29;100
24868;BME280;12941;48.698;9.310;2023-11-19T04:57:38;97724.1;;;13.19;100
24868;BME280;12941;48.698;9.310;2023-11-19T04:58:43;97726.09999999999;;;13.28;100
24868;BME280;12941;48.698;9.310;2023-11-19T04:59:43;97730.6;;;13.24;100
24868;BME280;12941;48.698;9.310;2023-11-19T05:00:48;97728.09999999999;;;13.23;100
24868;BME280;12941;48.698;9.310;2023-11-19T05:01:48;97728.9;;;13.25;100
24868;BME280;12941;48.698;9.310;2023-11-19T05:02:53;97727.09999999999;;;13.25;100
24868;BME280;12941;48.698;9.310;2023-11-19T05:03:58;97720.3;;;13.24;100
24868;BME280;12941;48.698;9.310;2023-11-19T05:05:03;97730.6;;;13.24;100
24868;BME280;12941;48.698;9.310;2023-11-19T05:06:08;97742.8;;;13.22;100
24868;BME280;12941;48.698;9.310;2023-11-19T05:07:08;97732.7;;;13.19;100
24868;BME280;12941;48.698;9.310;2023-11-19T05:08:13;97732.4;;;13.24;100
24868;BME280;12941;48.698;9.310;2023-11-19T05:09:18;97736.6;;;13.25;100
24868;BME280;12941;48.698;9.310;2023-11-19T05:10:23;97730.6;;;13.24;100
24868;BME280;12941;48.698;9.310;2023-11-19T05:11:28;97734.1;;;13.23;100
24868;BME280;12941;48.698;9.310;2023-11-19T05:12:28;97728;;;13.24;100
24868;BME280;12941;48.698;9.310;2023-11-19T05:13:28;97728;;;13.24;100
24868;BME280;12941;48.698;9.310;2023-11-19T05:14:33;97726.3;;;13.25;100
24868;BME280;12941;48.698;9.310;2023-11-19T05:15:33;97721.1;;;13.25;100
24868;BME280;12941;48.698;9.310;2023-11-19T05:16:35;97715.09999999999;;;13.26;100
24868;BME280;12941;48.698;9.310;2023-11-19T05:17:38;97726.3;;;13.25;100
24868;BME280;12941;48.698;9.310;2023-11-19T05:18:38;97726.3;;;13.25;100
24868;BME280;12941;48.698;9.310;2023-11-19T05:19:38;97729.6;;;13.27;100
24868;BME280;12941;48.698;9.310;2023-11-19T05:20:43;97733.90000000001;;;13.26;100
24868;BME280;12941;48.698;9.310;2023-11-19T05:21:48;97724.40000000001;;;13.27;100
24868;BME280;12941;48.698;9.310;2023-11-19T05:22:48;97720.3;;;13.24;100
24868;BME280;12941;48.698;9.310;2023-11-19T05:23:53;97717.6;;;13.26;100
24868;BME280;12941;48.698;9.310;2023-11-19T05:24:58;97722.79999999999;;;13.26;100
24868;BME280;12941;48.698;9.310;2023-11-19T05:26:03;97713.4;;;13.25;100
24868;BME280;12941;48.698;9.310;2023-11-19T05:27:08;97716.8;;;13.25;100
24868;BME280;12941;48.698;9.310;2023-11-19T05:28:13;97722.6;;;13.29;100
24868;BME280;12941;48.698;9.310;2023-11-19T05:29:13;97719.3;;;13.27;100